Terminal Aerodrome Forecast
Issued by NWS

Home | Current Version | Previous Version | Text Only | Print | Product List | Glossary On
Versions: 1 2 3 4 5 6 7 8 9 10 11 12 13 14 15 16 17 18 19 20 21 22 23 24 25 26 27 28
000
FTUS43 KICT 270335 AAC
TAFHUT
TAF AMD
KHUT 270335Z 2704/2724 02013KT 6SM BR VCSH SCT005 BKN040
     FM270600 01012KT 6SM BR VCSH SCT008 BKN015
     FM270800 01012KT 6SM BR SCT005 BKN008
     FM271500 36009KT P6SM SCT020=

USA.gov is the U.S. government's official web portal to all federal, state and local government web resources and services.